sensor_id;sensor_type;location;lat;lon;timestamp;pressure;altitude;pressure_sealevel;temperature
68440;BMP180;55421;51.600;5.718;2023-07-22T00:00:30;223518.59;;;16.20
68440;BMP180;55421;51.600;5.718;2023-07-22T00:03:17;223507.41;;;16.12
68440;BMP180;55421;51.600;5.718;2023-07-22T00:05:43;223497.80;;;16.10
68440;BMP180;55421;51.600;5.718;2023-07-22T00:08:10;223509.00;;;16.10
68440;BMP180;55421;51.600;5.718;2023-07-22T00:10:41;223507.41;;;16.10
68440;BMP180;55421;51.600;5.718;2023-07-22T00:13:08;223517.00;;;16.16
68440;BMP180;55421;51.600;5.718;2023-07-22T00:15:35;223517.00;;;16.20
68440;BMP180;55421;51.600;5.718;2023-07-22T00:18:01;223519.80;;;16.20
68440;BMP180;55421;51.600;5.718;2023-07-22T00:20:28;223519.80;;;16.20
68440;BMP180;55421;51.600;5.718;2023-07-22T00:22:55;223519.80;;;16.20
68440;BMP180;55421;51.600;5.718;2023-07-22T00:25:22;223510.59;;;16.12
68440;BMP180;55421;51.600;5.718;2023-07-22T00:27:48;223497.80;;;16.10
68440;BMP180;55421;51.600;5.718;2023-07-22T00:30:15;223491.80;;;16.10
68440;BMP180;55421;51.600;5.718;2023-07-22T00:32:41;223481.00;;;16.10
68440;BMP180;55421;51.600;5.718;2023-07-22T00:35:08;223471.00;;;16.10
68440;BMP180;55421;51.600;5.718;2023-07-22T00:37:36;223464.59;;;16.10
68440;BMP180;55421;51.600;5.718;2023-07-22T00:40:03;223444.80;;;16.00
68440;BMP180;55421;51.600;5.718;2023-07-22T00:42:32;223434.00;;;16.00
68440;BMP180;55421;51.600;5.718;2023-07-22T00:44:58;223434.00;;;16.00
68440;BMP180;55421;51.600;5.718;2023-07-22T00:47:25;223442.00;;;16.00
68440;BMP180;55421;51.600;5.718;2023-07-22T00:49:52;223463.41;;;16.08
68440;BMP180;55421;51.600;5.718;2023-07-22T00:52:18;223477.00;;;16.10
68440;BMP180;55421;51.600;5.718;2023-07-22T00:54:45;223478.59;;;16.10
68440;BMP180;55421;51.600;5.718;2023-07-22T00:57:11;223479.00;;;16.10
68440;BMP180;55421;51.600;5.718;2023-07-22T00:59:39;223475.00;;;16.10
68440;BMP180;55421;51.600;5.718;2023-07-22T01:02:07;223461.59;;;16.10
68440;BMP180;55421;51.600;5.718;2023-07-22T01:04:34;223451.41;;;16.00
68440;BMP180;55421;51.600;5.718;2023-07-22T01:07:03;223443.20;;;16.00
68440;BMP180;55421;51.600;5.718;2023-07-22T01:09:40;223442.00;;;16.00
68440;BMP180;55421;51.600;5.718;2023-07-22T01:12:08;223442.00;;;16.00
68440;BMP180;55421;51.600;5.718;2023-07-22T01:14:41;223443.20;;;16.00
68440;BMP180;55421;51.600;5.718;2023-07-22T01:17:09;223448.41;;;16.00
68440;BMP180;55421;51.600;5.718;2023-07-22T01:19:37;223456.20;;;16.08
68440;BMP180;55421;51.600;5.718;2023-07-22T01:22:06;223466.00;;;16.10
68440;BMP180;55421;51.600;5.718;2023-07-22T01:24:34;223463.20;;;16.08
68440;BMP180;55421;51.600;5.718;2023-07-22T01:27:01;223447.41;;;16.00
68440;BMP180;55421;51.600;5.718;2023-07-22T01:29:29;223429.59;;;16.00
68440;BMP180;55421;51.600;5.718;2023-07-22T01:31:56;223418.80;;;16.00
68440;BMP180;55421;51.600;5.718;2023-07-22T01:34:22;223398.80;;;15.94
68440;BMP180;55421;51.600;5.718;2023-07-22T01:36:51;223369.59;;;15.90
68440;BMP180;55421;51.600;5.718;2023-07-22T01:39:17;223349.80;;;15.90
68440;BMP180;55421;51.600;5.718;2023-07-22T01:41:45;223343.80;;;15.90
68440;BMP180;55421;51.600;5.718;2023-07-22T01:44:12;223353.80;;;15.90
68440;BMP180;55421;51.600;5.718;2023-07-22T01:46:38;223357.80;;;15.90
68440;BMP180;55421;51.600;5.718;2023-07-22T01:49:10;223359.41;;;15.90
68440;BMP180;55421;51.600;5.718;2023-07-22T01:51:37;223357.80;;;15.90
68440;BMP180;55421;51.600;5.718;2023-07-22T01:54:07;223349.80;;;15.90
68440;BMP180;55421;51.600;5.718;2023-07-22T01:56:36;223332.59;;;15.86
68440;BMP180;55421;51.600;5.718;2023-07-22T01:59:02;223323.00;;;15.80
68440;BMP180;55421;51.600;5.718;2023-07-22T02:01:29;223298.00;;;15.80
68440;BMP180;55421;51.600;5.718;2023-07-22T02:03:55;223285.59;;;15.76
68440;BMP180;55421;51.600;5.718;2023-07-22T02:06:24;223262.41;;;15.70
68440;BMP180;55421;51.600;5.718;2023-07-22T02:08:50;223251.20;;;15.70
68440;BMP180;55421;51.600;5.718;2023-07-22T02:11:17;223246.41;;;15.70
68440;BMP180;55421;51.600;5.718;2023-07-22T02:13:44;223227.20;;;15.66
68440;BMP180;55421;51.600;5.718;2023-07-22T02:16:10;223229.59;;;15.68
68440;BMP180;55421;51.600;5.718;2023-07-22T02:18:39;223238.41;;;15.70
68440;BMP180;55421;51.600;5.718;2023-07-22T02:21:06;223238.41;;;15.70
68440;BMP180;55421;51.600;5.718;2023-07-22T02:23:33;223240.41;;;15.70
68440;BMP180;55421;51.600;5.718;2023-07-22T02:26:01;223231.20;;;15.70
68440;BMP180;55421;51.600;5.718;2023-07-22T02:28:27;223244.80;;;15.70
68440;BMP180;55421;51.600;5.718;2023-07-22T02:30:54;223238.41;;;15.68
68440;BMP180;55421;51.600;5.718;2023-07-22T02:33:21;223222.80;;;15.60
68440;BMP180;55421;51.600;5.718;2023-07-22T02:35:48;223205.20;;;15.60
68440;BMP180;55421;51.600;5.718;2023-07-22T02:38:15;223194.41;;;15.60
68440;BMP180;55421;51.600;5.718;2023-07-22T02:40:42;223193.20;;;15.60
68440;BMP180;55421;51.600;5.718;2023-07-22T02:43:08;223206.80;;;15.60
68440;BMP180;55421;51.600;5.718;2023-07-22T02:45:36;223208.41;;;15.60
68440;BMP180;55421;51.600;5.718;2023-07-22T02:48:04;223199.20;;;15.60
68440;BMP180;55421;51.600;5.718;2023-07-22T02:50:31;223181.59;;;15.60
68440;BMP180;55421;51.600;5.718;2023-07-22T02:52:57;223180.00;;;15.58
68440;BMP180;55421;51.600;5.718;2023-07-22T02:55:24;223181.59;;;15.60
68440;BMP180;55421;51.600;5.718;2023-07-22T02:57:50;223180.00;;;15.58
68440;BMP180;55421;51.600;5.718;2023-07-22T03:00:19;223170.80;;;15.52
68440;BMP180;55421;51.600;5.718;2023-07-22T03:02:55;223169.20;;;15.50
68440;BMP180;55421;51.600;5.718;2023-07-22T03:05:28;223170.41;;;15.50
68440;BMP180;55421;51.600;5.718;2023-07-22T03:07:57;223158.80;;;15.50
68440;BMP180;55421;51.600;5.718;2023-07-22T03:10:24;223153.59;;;15.50
68440;BMP180;55421;51.600;5.718;2023-07-22T03:12:56;223146.00;;;15.50
68440;BMP180;55421;51.600;5.718;2023-07-22T03:15:23;223141.00;;;15.50
68440;BMP180;55421;51.600;5.718;2023-07-22T03:17:53;223117.59;;;15.50
68440;BMP180;55421;51.600;5.718;2023-07-22T03:20:19;223085.59;;;15.40
68440;BMP180;55421;51.600;5.718;2023-07-22T03:22:46;223050.80;;;15.30
68440;BMP180;55421;51.600;5.718;2023-07-22T03:25:15;223000.41;;;15.22
68440;BMP180;55421;51.600;5.718;2023-07-22T03:27:44;222960.59;;;15.20
68440;BMP180;55421;51.600;5.718;2023-07-22T03:30:14;222917.41;;;15.10
68440;BMP180;55421;51.600;5.718;2023-07-22T03:32:46;222895.41;;;15.10
68440;BMP180;55421;51.600;5.718;2023-07-22T03:35:14;222876.20;;;15.00
68440;BMP180;55421;51.600;5.718;2023-07-22T03:37:40;222876.20;;;15.00
68440;BMP180;55421;51.600;5.718;2023-07-22T03:40:08;222857.80;;;15.00
68440;BMP180;55421;51.600;5.718;2023-07-22T03:42:49;222834.00;;;15.00
68440;BMP180;55421;51.600;5.718;2023-07-22T03:45:17;222813.20;;;14.90
68440;BMP180;55421;51.600;5.718;2023-07-22T03:47:51;222788.20;;;14.90
68440;BMP180;55421;51.600;5.718;2023-07-22T03:50:18;222759.80;;;14.80
68440;BMP180;55421;51.600;5.718;2023-07-22T03:52:45;222727.41;;;14.80
68440;BMP180;55421;51.600;5.718;2023-07-22T03:55:11;222704.59;;;14.70
68440;BMP180;55421;51.600;5.718;2023-07-22T03:57:38;222690.59;;;14.70
68440;BMP180;55421;51.600;5.718;2023-07-22T04:00:08;222683.80;;;14.70
68440;BMP180;55421;51.600;5.718;2023-07-22T04:02:38;222674.59;;;14.70
68440;BMP180;55421;51.600;5.718;2023-07-22T04:05:05;222670.59;;;14.68
68440;BMP180;55421;51.600;5.718;2023-07-22T04:07:32;222683.00;;;14.70
68440;BMP180;55421;51.600;5.718;2023-07-22T04:09:58;222689.41;;;14.70
68440;BMP180;55421;51.600;5.718;2023-07-22T04:12:25;222685.00;;;14.70
68440;BMP180;55421;51.600;5.718;2023-07-22T04:14:51;222687.80;;;14.70
68440;BMP180;55421;51.600;5.718;2023-07-22T04:17:18;222698.20;;;14.70
68440;BMP180;55421;51.600;5.718;2023-07-22T04:19:44;222713.80;;;14.70
68440;BMP180;55421;51.600;5.718;2023-07-22T04:22:11;222720.59;;;14.78
68440;BMP180;55421;51.600;5.718;2023-07-22T04:24:38;222733.00;;;14.80
68440;BMP180;55421;51.600;5.718;2023-07-22T04:27:05;222737.80;;;14.80
68440;BMP180;55421;51.600;5.718;2023-07-22T04:29:31;222750.59;;;14.80
68440;BMP180;55421;51.600;5.718;2023-07-22T04:31:59;222767.80;;;14.80
68440;BMP180;55421;51.600;5.718;2023-07-22T04:34:30;222805.00;;;14.90
68440;BMP180;55421;51.600;5.718;2023-07-22T04:36:57;222835.59;;;15.00
68440;BMP180;55421;51.600;5.718;2023-07-22T04:39:23;222874.59;;;15.00
68440;BMP180;55421;51.600;5.718;2023-07-22T04:41:51;222910.59;;;15.10
68440;BMP180;55421;51.600;5.718;2023-07-22T04:44:18;222925.41;;;15.10
68440;BMP180;55421;51.600;5.718;2023-07-22T04:46:45;222922.20;;;15.10
68440;BMP180;55421;51.600;5.718;2023-07-22T04:49:12;222927.00;;;15.10
68440;BMP180;55421;51.600;5.718;2023-07-22T04:51:39;222948.59;;;15.20
68440;BMP180;55421;51.600;5.718;2023-07-22T04:54:06;223019.20;;;15.30
68440;BMP180;55421;51.600;5.718;2023-07-22T04:56:32;223050.80;;;15.30
68440;BMP180;55421;51.600;5.718;2023-07-22T04:58:59;223049.20;;;15.30
68440;BMP180;55421;51.600;5.718;2023-07-22T05:01:25;223084.00;;;15.40
68440;BMP180;55421;51.600;5.718;2023-07-22T05:03:52;223116.59;;;15.50
68440;BMP180;55421;51.600;5.718;2023-07-22T05:06:21;223148.00;;;15.50
68440;BMP180;55421;51.600;5.718;2023-07-22T05:08:48;223183.20;;;15.60
68440;BMP180;55421;51.600;5.718;2023-07-22T05:11:14;223221.20;;;15.60
68440;BMP180;55421;51.600;5.718;2023-07-22T05:13:41;223252.80;;;15.70
68440;BMP180;55421;51.600;5.718;2023-07-22T05:16:07;223282.80;;;15.76
68440;BMP180;55421;51.600;5.718;2023-07-22T05:18:34;223318.20;;;15.80
68440;BMP180;55421;51.600;5.718;2023-07-22T05:21:01;223341.80;;;15.88
68440;BMP180;55421;51.600;5.718;2023-07-22T05:23:27;223330.59;;;15.82
68440;BMP180;55421;51.600;5.718;2023-07-22T05:25:54;223318.20;;;15.80
68440;BMP180;55421;51.600;5.718;2023-07-22T05:28:20;223340.20;;;15.86
68440;BMP180;55421;51.600;5.718;2023-07-22T05:30:47;223365.80;;;15.90
68440;BMP180;55421;51.600;5.718;2023-07-22T05:33:14;223429.20;;;16.00
68440;BMP180;55421;51.600;5.718;2023-07-22T05:35:40;223440.41;;;16.00
68440;BMP180;55421;51.600;5.718;2023-07-22T05:38:07;223444.80;;;16.00
68440;BMP180;55421;51.600;5.718;2023-07-22T05:40:33;223443.20;;;16.00
68440;BMP180;55421;51.600;5.718;2023-07-22T05:43:00;223438.80;;;16.00
68440;BMP180;55421;51.600;5.718;2023-07-22T05:45:27;223488.59;;;16.10
68440;BMP180;55421;51.600;5.718;2023-07-22T05:47:53;223519.80;;;16.20
68440;BMP180;55421;51.600;5.718;2023-07-22T05:50:20;223521.41;;;16.20
68440;BMP180;55421;51.600;5.718;2023-07-22T05:52:46;223522.59;;;16.20
68440;BMP180;55421;51.600;5.718;2023-07-22T05:55:14;223570.20;;;16.30
68440;BMP180;55421;51.600;5.718;2023-07-22T05:57:41;223624.00;;;16.38
68440;BMP180;55421;51.600;5.718;2023-07-22T06:00:08;223738.20;;;16.54
68440;BMP180;55421;51.600;5.718;2023-07-22T06:02:35;223804.80;;;16.70
68440;BMP180;55421;51.600;5.718;2023-07-22T06:05:02;223825.59;;;16.70
68440;BMP180;55421;51.600;5.718;2023-07-22T06:07:29;223878.80;;;16.80
68440;BMP180;55421;51.600;5.718;2023-07-22T06:09:55;223961.20;;;16.92
68440;BMP180;55421;51.600;5.718;2023-07-22T06:12:22;224035.59;;;17.10
68440;BMP180;55421;51.600;5.718;2023-07-22T06:14:48;224109.80;;;17.20
68440;BMP180;55421;51.600;5.718;2023-07-22T06:17:14;224138.41;;;17.30
68440;BMP180;55421;51.600;5.718;2023-07-22T06:19:41;224160.00;;;17.30
68440;BMP180;55421;51.600;5.718;2023-07-22T06:22:07;224140.00;;;17.30
68440;BMP180;55421;51.600;5.718;2023-07-22T06:24:34;224143.80;;;17.30
68440;BMP180;55421;51.600;5.718;2023-07-22T06:27:00;224206.00;;;17.40
68440;BMP180;55421;51.600;5.718;2023-07-22T06:29:27;224255.41;;;17.50
68440;BMP180;55421;51.600;5.718;2023-07-22T06:31:54;224303.41;;;17.54
68440;BMP180;55421;51.600;5.718;2023-07-22T06:34:20;224400.80;;;17.72
68440;BMP180;55421;51.600;5.718;2023-07-22T06:36:47;224478.59;;;17.90
68440;BMP180;55421;51.600;5.718;2023-07-22T06:39:13;224515.41;;;17.90
68440;BMP180;55421;51.600;5.718;2023-07-22T06:41:40;224515.41;;;17.90
68440;BMP180;55421;51.600;5.718;2023-07-22T06:44:06;224515.41;;;17.90
68440;BMP180;55421;51.600;5.718;2023-07-22T06:46:33;224501.00;;;17.90
68440;BMP180;55421;51.600;5.718;2023-07-22T06:48:59;224504.20;;;17.90
68440;BMP180;55421;51.600;5.718;2023-07-22T06:51:26;224556.80;;;18.00
68440;BMP180;55421;51.600;5.718;2023-07-22T06:53:52;224596.41;;;18.10
68440;BMP180;55421;51.600;5.718;2023-07-22T06:56:19;224602.80;;;18.10
68440;BMP180;55421;51.600;5.718;2023-07-22T06:58:45;224568.00;;;18.00
68440;BMP180;55421;51.600;5.718;2023-07-22T07:01:13;224532.00;;;18.00
68440;BMP180;55421;51.600;5.718;2023-07-22T07:03:39;224499.41;;;17.90
68440;BMP180;55421;51.600;5.718;2023-07-22T07:06:06;224572.80;;;18.00
68440;BMP180;55421;51.600;5.718;2023-07-22T07:08:32;224702.59;;;18.24
68440;BMP180;55421;51.600;5.718;2023-07-22T07:11:00;224792.41;;;18.40
68440;BMP180;55421;51.600;5.718;2023-07-22T07:13:27;224843.00;;;18.50
68440;BMP180;55421;51.600;5.718;2023-07-22T07:15:54;224924.00;;;18.64
68440;BMP180;55421;51.600;5.718;2023-07-22T07:18:21;225007.59;;;18.80
68440;BMP180;55421;51.600;5.718;2023-07-22T07:20:47;225019.41;;;18.80
68440;BMP180;55421;51.600;5.718;2023-07-22T07:23:16;225014.80;;;18.80
68440;BMP180;55421;51.600;5.718;2023-07-22T07:25:43;224960.00;;;18.70
68440;BMP180;55421;51.600;5.718;2023-07-22T07:28:09;224958.41;;;18.70
68440;BMP180;55421;51.600;5.718;2023-07-22T07:30:37;224917.00;;;18.66
68440;BMP180;55421;51.600;5.718;2023-07-22T07:33:04;224933.20;;;18.70
68440;BMP180;55421;51.600;5.718;2023-07-22T07:35:30;224917.00;;;18.60
68440;BMP180;55421;51.600;5.718;2023-07-22T07:37:57;224885.41;;;18.60
68440;BMP180;55421;51.600;5.718;2023-07-22T07:40:23;224866.20;;;18.56
68440;BMP180;55421;51.600;5.718;2023-07-22T07:42:50;224857.41;;;18.50
68440;BMP180;55421;51.600;5.718;2023-07-22T07:45:16;224865.00;;;18.54
68440;BMP180;55421;51.600;5.718;2023-07-22T07:47:43;224841.80;;;18.50
68440;BMP180;55421;51.600;5.718;2023-07-22T07:50:09;224824.41;;;18.50
68440;BMP180;55421;51.600;5.718;2023-07-22T07:52:36;224822.80;;;18.50
68440;BMP180;55421;51.600;5.718;2023-07-22T07:55:05;224833.20;;;18.50
68440;BMP180;55421;51.600;5.718;2023-07-22T07:57:31;224861.41;;;18.50
68440;BMP180;55421;51.600;5.718;2023-07-22T07:59:58;224883.80;;;18.60
68440;BMP180;55421;51.600;5.718;2023-07-22T08:02:24;224915.41;;;18.62
68440;BMP180;55421;51.600;5.718;2023-07-22T08:04:51;224948.80;;;18.70
68440;BMP180;55421;51.600;5.718;2023-07-22T08:07:18;224961.59;;;18.70
68440;BMP180;55421;51.600;5.718;2023-07-22T08:09:47;224972.41;;;18.70
68440;BMP180;55421;51.600;5.718;2023-07-22T08:12:15;224952.00;;;18.70
68440;BMP180;55421;51.600;5.718;2023-07-22T08:14:42;224961.59;;;18.70
68440;BMP180;55421;51.600;5.718;2023-07-22T08:17:08;224988.41;;;18.74
68440;BMP180;55421;51.600;5.718;2023-07-22T08:19:35;225029.00;;;18.80
68440;BMP180;55421;51.600;5.718;2023-07-22T08:22:01;225133.80;;;19.02
68440;BMP180;55421;51.600;5.718;2023-07-22T08:24:28;225272.59;;;19.26
68440;BMP180;55421;51.600;5.718;2023-07-22T08:26:54;225398.80;;;19.50
68440;BMP180;55421;51.600;5.718;2023-07-22T08:29:21;225487.80;;;19.64
68440;BMP180;55421;51.600;5.718;2023-07-22T08:31:47;225582.41;;;19.80
68440;BMP180;55421;51.600;5.718;2023-07-22T08:34:14;225638.80;;;19.94
68440;BMP180;55421;51.600;5.718;2023-07-22T08:36:41;225702.20;;;20.00
68440;BMP180;55421;51.600;5.718;2023-07-22T08:39:08;225727.59;;;20.10
68440;BMP180;55421;51.600;5.718;2023-07-22T08:41:36;225730.00;;;20.10
68440;BMP180;55421;51.600;5.718;2023-07-22T08:44:04;225764.00;;;20.10
68440;BMP180;55421;51.600;5.718;2023-07-22T08:46:33;225750.80;;;20.10
68440;BMP180;55421;51.600;5.718;2023-07-22T08:49:00;225667.00;;;20.00
68440;BMP180;55421;51.600;5.718;2023-07-22T08:51:27;225614.00;;;19.90
68440;BMP180;55421;51.600;5.718;2023-07-22T08:53:56;225590.80;;;19.82
68440;BMP180;55421;51.600;5.718;2023-07-22T08:56:28;225607.59;;;19.90
68440;BMP180;55421;51.600;5.718;2023-07-22T08:58:55;225730.80;;;20.10
68440;BMP180;55421;51.600;5.718;2023-07-22T09:01:23;225843.80;;;20.30
68440;BMP180;55421;51.600;5.718;2023-07-22T09:03:50;225977.20;;;20.50
68440;BMP180;55421;51.600;5.718;2023-07-22T09:06:19;226104.20;;;20.76
68440;BMP180;55421;51.600;5.718;2023-07-22T09:08:46;226259.80;;;21.00
68440;BMP180;55421;51.600;5.718;2023-07-22T09:11:15;226388.00;;;21.24
68440;BMP180;55421;51.600;5.718;2023-07-22T09:13:44;226591.59;;;21.60
68440;BMP180;55421;51.600;5.718;2023-07-22T09:16:14;226630.20;;;21.70
68440;BMP180;55421;51.600;5.718;2023-07-22T09:18:41;226567.59;;;21.56
68440;BMP180;55421;51.600;5.718;2023-07-22T09:21:08;226484.00;;;21.40
68440;BMP180;55421;51.600;5.718;2023-07-22T09:23:38;226453.20;;;21.40
68440;BMP180;55421;51.600;5.718;2023-07-22T09:26:17;226434.80;;;21.30
68440;BMP180;55421;51.600;5.718;2023-07-22T09:28:55;226406.41;;;21.30
68440;BMP180;55421;51.600;5.718;2023-07-22T09:31:25;226343.20;;;21.20
68440;BMP180;55421;51.600;5.718;2023-07-22T09:33:52;226287.80;;;21.08
68440;BMP180;55421;51.600;5.718;2023-07-22T09:36:22;226262.20;;;21.00
68440;BMP180;55421;51.600;5.718;2023-07-22T09:39:00;226265.41;;;21.00
68440;BMP180;55421;51.600;5.718;2023-07-22T09:41:29;226260.59;;;21.00
68440;BMP180;55421;51.600;5.718;2023-07-22T09:43:56;226289.41;;;21.10
68440;BMP180;55421;51.600;5.718;2023-07-22T09:46:31;226323.59;;;21.10
68440;BMP180;55421;51.600;5.718;2023-07-22T09:49:03;226379.59;;;21.20
68440;BMP180;55421;51.600;5.718;2023-07-22T09:51:40;226432.00;;;21.30
68440;BMP180;55421;51.600;5.718;2023-07-22T09:54:07;226484.00;;;21.40
68440;BMP180;55421;51.600;5.718;2023-07-22T09:56:48;226467.41;;;21.40
68440;BMP180;55421;51.600;5.718;2023-07-22T09:59:18;226432.00;;;21.30
68440;BMP180;55421;51.600;5.718;2023-07-22T10:01:48;226419.20;;;21.30
68440;BMP180;55421;51.600;5.718;2023-07-22T10:04:16;226392.00;;;21.24
68440;BMP180;55421;51.600;5.718;2023-07-22T10:06:43;226374.00;;;21.20
68440;BMP180;55421;51.600;5.718;2023-07-22T10:09:11;226428.80;;;21.30
68440;BMP180;55421;51.600;5.718;2023-07-22T10:11:39;226493.80;;;21.42
68440;BMP180;55421;51.600;5.718;2023-07-22T10:14:06;226537.20;;;21.50
68440;BMP180;55421;51.600;5.718;2023-07-22T10:16:34;226531.20;;;21.50
68440;BMP180;55421;51.600;5.718;2023-07-22T10:19:02;226559.59;;;21.52
68440;BMP180;55421;51.600;5.718;2023-07-22T10:21:31;226577.20;;;21.60
68440;BMP180;55421;51.600;5.718;2023-07-22T10:24:01;226612.41;;;21.60
68440;BMP180;55421;51.600;5.718;2023-07-22T10:26:29;226638.59;;;21.70
68440;BMP180;55421;51.600;5.718;2023-07-22T10:28:57;226629.80;;;21.70
68440;BMP180;55421;51.600;5.718;2023-07-22T10:31:24;226567.59;;;21.60
68440;BMP180;55421;51.600;5.718;2023-07-22T10:33:51;226503.59;;;21.44
68440;BMP180;55421;51.600;5.718;2023-07-22T10:36:18;226481.80;;;21.40
68440;BMP180;55421;51.600;5.718;2023-07-22T10:38:56;226531.20;;;21.50
68440;BMP180;55421;51.600;5.718;2023-07-22T10:41:23;226631.20;;;21.68
68440;BMP180;55421;51.600;5.718;2023-07-22T10:43:57;226772.41;;;21.90
68440;BMP180;55421;51.600;5.718;2023-07-22T10:46:36;226833.41;;;22.00
68440;BMP180;55421;51.600;5.718;2023-07-22T10:49:13;226839.41;;;22.04
68440;BMP180;55421;51.600;5.718;2023-07-22T10:51:41;226730.59;;;21.88
68440;BMP180;55421;51.600;5.718;2023-07-22T10:54:12;226663.80;;;21.70
68440;BMP180;55421;51.600;5.718;2023-07-22T10:56:43;226662.20;;;21.70
68440;BMP180;55421;51.600;5.718;2023-07-22T10:59:11;226693.41;;;21.80
68440;BMP180;55421;51.600;5.718;2023-07-22T11:01:44;226794.41;;;21.98
68440;BMP180;55421;51.600;5.718;2023-07-22T11:12:05;226986.80;;;22.30
68440;BMP180;55421;51.600;5.718;2023-07-22T11:14:52;226974.00;;;22.30
68440;BMP180;55421;51.600;5.718;2023-07-22T11:17:29;226985.20;;;22.30
68440;BMP180;55421;51.600;5.718;2023-07-22T11:19:58;227037.80;;;22.40
68440;BMP180;55421;51.600;5.718;2023-07-22T11:22:25;227097.00;;;22.50
68440;BMP180;55421;51.600;5.718;2023-07-22T11:24:52;227105.00;;;22.50
68440;BMP180;55421;51.600;5.718;2023-07-22T11:27:19;227093.80;;;22.50
68440;BMP180;55421;51.600;5.718;2023-07-22T11:29:48;227003.20;;;22.32
68440;BMP180;55421;51.600;5.718;2023-07-22T11:32:17;227020.59;;;22.36
68440;BMP180;55421;51.600;5.718;2023-07-22T11:34:44;227082.59;;;22.50
68440;BMP180;55421;51.600;5.718;2023-07-22T11:37:11;227140.80;;;22.60
68440;BMP180;55421;51.600;5.718;2023-07-22T11:39:38;227180.41;;;22.62
68440;BMP180;55421;51.600;5.718;2023-07-22T11:42:05;227218.80;;;22.70
68440;BMP180;55421;51.600;5.718;2023-07-22T11:44:32;227246.00;;;22.80
68440;BMP180;55421;51.600;5.718;2023-07-22T11:47:03;227324.80;;;22.90
68440;BMP180;55421;51.600;5.718;2023-07-22T11:49:41;227454.20;;;23.10
68440;BMP180;55421;51.600;5.718;2023-07-22T11:52:11;227487.00;;;23.20
68440;BMP180;55421;51.600;5.718;2023-07-22T11:54:42;227435.20;;;23.10
68440;BMP180;55421;51.600;5.718;2023-07-22T11:57:17;227393.59;;;23.00
68440;BMP180;55421;51.600;5.718;2023-07-22T11:59:49;227379.59;;;23.00
68440;BMP180;55421;51.600;5.718;2023-07-22T12:02:25;227366.00;;;23.00
68440;BMP180;55421;51.600;5.718;2023-07-22T12:04:56;227346.80;;;22.90
68440;BMP180;55421;51.600;5.718;2023-07-22T12:07:31;227335.59;;;22.90
68440;BMP180;55421;51.600;5.718;2023-07-22T12:10:04;227353.20;;;22.94
68440;BMP180;55421;51.600;5.718;2023-07-22T12:12:40;227327.59;;;22.90
68440;BMP180;55421;51.600;5.718;2023-07-22T12:15:20;227384.41;;;23.00
68440;BMP180;55421;51.600;5.718;2023-07-22T12:18:01;227421.59;;;23.10
68440;BMP180;55421;51.600;5.718;2023-07-22T12:20:29;227467.00;;;23.16
68440;BMP180;55421;51.600;5.718;2023-07-22T12:22:57;227482.20;;;23.20
68440;BMP180;55421;51.600;5.718;2023-07-22T12:25:24;227477.80;;;23.20
68440;BMP180;55421;51.600;5.718;2023-07-22T12:27:51;227468.59;;;23.18
68440;BMP180;55421;51.600;5.718;2023-07-22T12:30:19;227459.00;;;23.10
68440;BMP180;55421;51.600;5.718;2023-07-22T12:32:47;227428.00;;;23.10
68440;BMP180;55421;51.600;5.718;2023-07-22T12:35:14;227408.80;;;23.02
68440;BMP180;55421;51.600;5.718;2023-07-22T12:37:40;227368.80;;;23.00
68440;BMP180;55421;51.600;5.718;2023-07-22T12:40:07;227340.41;;;22.90
68440;BMP180;55421;51.600;5.718;2023-07-22T12:42:35;227350.00;;;22.90
68440;BMP180;55421;51.600;5.718;2023-07-22T12:45:04;227387.59;;;23.00
68440;BMP180;55421;51.600;5.718;2023-07-22T12:47:31;227412.80;;;23.04
68440;BMP180;55421;51.600;5.718;2023-07-22T12:49:58;227406.80;;;23.02
68440;BMP180;55421;51.600;5.718;2023-07-22T12:52:24;227422.41;;;23.10
68440;BMP180;55421;51.600;5.718;2023-07-22T12:54:51;227438.20;;;23.10
68440;BMP180;55421;51.600;5.718;2023-07-22T12:57:17;227418.41;;;23.08
68440;BMP180;55421;51.600;5.718;2023-07-22T12:59:44;227418.80;;;23.10
68440;BMP180;55421;51.600;5.718;2023-07-22T13:02:11;227408.41;;;23.06
68440;BMP180;55421;51.600;5.718;2023-07-22T13:04:38;227428.41;;;23.10
68440;BMP180;55421;51.600;5.718;2023-07-22T13:07:04;227480.20;;;23.20
68440;BMP180;55421;51.600;5.718;2023-07-22T13:09:31;227480.59;;;23.20
68440;BMP180;55421;51.600;5.718;2023-07-22T13:11:57;227475.00;;;23.18
68440;BMP180;55421;51.600;5.718;2023-07-22T13:14:24;227482.59;;;23.20
68440;BMP180;55421;51.600;5.718;2023-07-22T13:16:50;227516.20;;;23.20
68440;BMP180;55421;51.600;5.718;2023-07-22T13:19:17;227548.41;;;23.30
68440;BMP180;55421;51.600;5.718;2023-07-22T13:21:43;227543.59;;;23.30
68440;BMP180;55421;51.600;5.718;2023-07-22T13:24:10;227530.41;;;23.30
68440;BMP180;55421;51.600;5.718;2023-07-22T13:26:36;227496.59;;;23.20
68440;BMP180;55421;51.600;5.718;2023-07-22T13:29:03;227495.00;;;23.20
68440;BMP180;55421;51.600;5.718;2023-07-22T13:31:29;227489.00;;;23.20
68440;BMP180;55421;51.600;5.718;2023-07-22T13:33:55;227483.41;;;23.20
68440;BMP180;55421;51.600;5.718;2023-07-22T13:36:22;227502.20;;;23.20
68440;BMP180;55421;51.600;5.718;2023-07-22T13:38:48;227540.41;;;23.30
68440;BMP180;55421;51.600;5.718;2023-07-22T13:41:15;227550.00;;;23.30
68440;BMP180;55421;51.600;5.718;2023-07-22T13:43:41;227591.59;;;23.40
68440;BMP180;55421;51.600;5.718;2023-07-22T13:46:08;227613.41;;;23.40
68440;BMP180;55421;51.600;5.718;2023-07-22T13:48:34;227606.80;;;23.40
68440;BMP180;55421;51.600;5.718;2023-07-22T13:51:01;227620.80;;;23.40
68440;BMP180;55421;51.600;5.718;2023-07-22T13:53:27;227667.00;;;23.50
68440;BMP180;55421;51.600;5.718;2023-07-22T13:55:54;227710.20;;;23.60
68440;BMP180;55421;51.600;5.718;2023-07-22T13:58:20;227765.00;;;23.70
68440;BMP180;55421;51.600;5.718;2023-07-22T14:00:47;227798.00;;;23.70
68440;BMP180;55421;51.600;5.718;2023-07-22T14:03:14;227775.59;;;23.70
68440;BMP180;55421;51.600;5.718;2023-07-22T14:05:41;227790.00;;;23.70
68440;BMP180;55421;51.600;5.718;2023-07-22T14:08:08;227826.20;;;23.80